sensor_id;sensor_type;location;lat;lon;timestamp;temperature;humidity
9125;DHT22;4597;48.730;9.114;2023-07-09T00:02:11;23.80;52.70
9125;DHT22;4597;48.730;9.114;2023-07-09T00:04:37;23.70;53.00
9125;DHT22;4597;48.730;9.114;2023-07-09T00:07:04;23.70;53.30
9125;DHT22;4597;48.730;9.114;2023-07-09T00:09:30;23.70;53.90
9125;DHT22;4597;48.730;9.114;2023-07-09T00:11:56;23.70;54.50
9125;DHT22;4597;48.730;9.114;2023-07-09T00:14:22;23.60;55.20
9125;DHT22;4597;48.730;9.114;2023-07-09T00:16:47;23.60;55.90
9125;DHT22;4597;48.730;9.114;2023-07-09T00:19:16;23.50;56.40
9125;DHT22;4597;48.730;9.114;2023-07-09T00:21:43;23.40;56.50
9125;DHT22;4597;48.730;9.114;2023-07-09T00:24:11;23.40;56.90
9125;DHT22;4597;48.730;9.114;2023-07-09T00:26:37;23.30;57.20
9125;DHT22;4597;48.730;9.114;2023-07-09T00:29:04;23.30;57.50
9125;DHT22;4597;48.730;9.114;2023-07-09T00:31:30;23.30;58.30
9125;DHT22;4597;48.730;9.114;2023-07-09T00:33:55;23.30;58.80
9125;DHT22;4597;48.730;9.114;2023-07-09T00:36:29;23.20;59.70
9125;DHT22;4597;48.730;9.114;2023-07-09T00:38:56;23.20;60.00
9125;DHT22;4597;48.730;9.114;2023-07-09T00:41:24;23.10;60.20
9125;DHT22;4597;48.730;9.114;2023-07-09T00:43:51;23.10;60.50
9125;DHT22;4597;48.730;9.114;2023-07-09T00:48:53;23.00;61.70
9125;DHT22;4597;48.730;9.114;2023-07-09T00:51:21;22.90;62.50
9125;DHT22;4597;48.730;9.114;2023-07-09T00:53:49;22.80;63.20
9125;DHT22;4597;48.730;9.114;2023-07-09T00:56:24;22.70;63.80
9125;DHT22;4597;48.730;9.114;2023-07-09T00:58:51;22.70;64.70
9125;DHT22;4597;48.730;9.114;2023-07-09T01:01:19;22.70;65.60
9125;DHT22;4597;48.730;9.114;2023-07-09T01:03:49;22.60;66.50
9125;DHT22;4597;48.730;9.114;2023-07-09T01:06:20;22.60;67.40
9125;DHT22;4597;48.730;9.114;2023-07-09T01:08:48;22.60;68.40
9125;DHT22;4597;48.730;9.114;2023-07-09T01:11:20;22.50;69.10
9125;DHT22;4597;48.730;9.114;2023-07-09T01:13:54;22.50;70.10
9125;DHT22;4597;48.730;9.114;2023-07-09T01:16:22;22.40;71.10
9125;DHT22;4597;48.730;9.114;2023-07-09T01:18:49;22.40;72.50
9125;DHT22;4597;48.730;9.114;2023-07-09T01:21:15;22.30;73.40
9125;DHT22;4597;48.730;9.114;2023-07-09T01:23:46;22.30;74.40
9125;DHT22;4597;48.730;9.114;2023-07-09T01:26:14;22.30;75.40
9125;DHT22;4597;48.730;9.114;2023-07-09T01:28:40;22.20;76.90
9125;DHT22;4597;48.730;9.114;2023-07-09T01:31:10;22.10;77.40
9125;DHT22;4597;48.730;9.114;2023-07-09T01:33:37;22.10;78.50
9125;DHT22;4597;48.730;9.114;2023-07-09T01:36:05;22.10;80.10
9125;DHT22;4597;48.730;9.114;2023-07-09T01:38:32;22.00;81.40
9125;DHT22;4597;48.730;9.114;2023-07-09T01:40:58;22.00;83.50
9125;DHT22;4597;48.730;9.114;2023-07-09T01:43:24;21.90;85.20
9125;DHT22;4597;48.730;9.114;2023-07-09T01:45:53;21.90;86.70
9125;DHT22;4597;48.730;9.114;2023-07-09T01:48:23;21.90;87.70
9125;DHT22;4597;48.730;9.114;2023-07-09T01:50:50;21.90;87.70
9125;DHT22;4597;48.730;9.114;2023-07-09T01:53:18;21.80;88.70
9125;DHT22;4597;48.730;9.114;2023-07-09T01:55:45;21.80;90.40
9125;DHT22;4597;48.730;9.114;2023-07-09T01:58:10;21.80;91.10
9125;DHT22;4597;48.730;9.114;2023-07-09T02:00:37;21.70;91.70
9125;DHT22;4597;48.730;9.114;2023-07-09T02:03:04;21.70;92.40
9125;DHT22;4597;48.730;9.114;2023-07-09T02:05:31;21.70;93.20
9125;DHT22;4597;48.730;9.114;2023-07-09T02:07:57;21.70;94.00
9125;DHT22;4597;48.730;9.114;2023-07-09T02:10:23;21.60;94.50
9125;DHT22;4597;48.730;9.114;2023-07-09T02:12:48;21.60;94.80
9125;DHT22;4597;48.730;9.114;2023-07-09T02:15:15;21.50;95.40
9125;DHT22;4597;48.730;9.114;2023-07-09T02:17:41;21.50;96.60
9125;DHT22;4597;48.730;9.114;2023-07-09T02:20:08;21.50;97.90
9125;DHT22;4597;48.730;9.114;2023-07-09T02:22:35;21.50;98.70
9125;DHT22;4597;48.730;9.114;2023-07-09T02:25:00;21.40;99.60
9125;DHT22;4597;48.730;9.114;2023-07-09T02:27:26;21.40;99.90
9125;DHT22;4597;48.730;9.114;2023-07-09T02:29:53;21.30;99.90
9125;DHT22;4597;48.730;9.114;2023-07-09T02:32:23;21.30;99.90
9125;DHT22;4597;48.730;9.114;2023-07-09T02:34:49;21.30;99.90
9125;DHT22;4597;48.730;9.114;2023-07-09T02:37:23;21.20;99.90
9125;DHT22;4597;48.730;9.114;2023-07-09T02:39:49;21.20;99.90
9125;DHT22;4597;48.730;9.114;2023-07-09T02:42:16;21.10;99.90
9125;DHT22;4597;48.730;9.114;2023-07-09T02:44:43;21.10;99.90
9125;DHT22;4597;48.730;9.114;2023-07-09T02:47:10;21.10;99.90
9125;DHT22;4597;48.730;9.114;2023-07-09T02:49:36;21.00;99.90
9125;DHT22;4597;48.730;9.114;2023-07-09T02:52:02;21.00;99.90
9125;DHT22;4597;48.730;9.114;2023-07-09T02:54:28;20.90;99.90
9125;DHT22;4597;48.730;9.114;2023-07-09T02:56:54;20.90;99.90
9125;DHT22;4597;48.730;9.114;2023-07-09T02:59:19;20.90;99.90
9125;DHT22;4597;48.730;9.114;2023-07-09T03:01:45;20.80;99.90
9125;DHT22;4597;48.730;9.114;2023-07-09T03:04:13;20.80;99.90
9125;DHT22;4597;48.730;9.114;2023-07-09T03:06:38;20.80;99.90
9125;DHT22;4597;48.730;9.114;2023-07-09T03:09:05;20.80;99.90
9125;DHT22;4597;48.730;9.114;2023-07-09T03:11:32;20.70;99.90
9125;DHT22;4597;48.730;9.114;2023-07-09T03:13:59;20.70;99.90
9125;DHT22;4597;48.730;9.114;2023-07-09T03:16:30;20.60;99.90
9125;DHT22;4597;48.730;9.114;2023-07-09T03:18:56;20.60;99.90
9125;DHT22;4597;48.730;9.114;2023-07-09T03:21:23;20.50;99.90
9125;DHT22;4597;48.730;9.114;2023-07-09T03:23:50;20.50;99.90
9125;DHT22;4597;48.730;9.114;2023-07-09T03:26:15;20.50;99.90
9125;DHT22;4597;48.730;9.114;2023-07-09T03:28:41;20.50;99.90
9125;DHT22;4597;48.730;9.114;2023-07-09T03:31:07;20.40;99.90
9125;DHT22;4597;48.730;9.114;2023-07-09T03:33:33;20.40;99.90
9125;DHT22;4597;48.730;9.114;2023-07-09T03:35:58;20.40;99.90
9125;DHT22;4597;48.730;9.114;2023-07-09T03:38:24;20.40;99.90
9125;DHT22;4597;48.730;9.114;2023-07-09T03:40:51;20.40;99.90
9125;DHT22;4597;48.730;9.114;2023-07-09T03:43:17;20.30;99.90
9125;DHT22;4597;48.730;9.114;2023-07-09T03:45:44;20.30;99.90
9125;DHT22;4597;48.730;9.114;2023-07-09T03:48:10;20.30;99.90
9125;DHT22;4597;48.730;9.114;2023-07-09T03:50:35;20.30;99.90
9125;DHT22;4597;48.730;9.114;2023-07-09T03:53:01;20.30;99.90
9125;DHT22;4597;48.730;9.114;2023-07-09T03:55:27;20.20;99.90
9125;DHT22;4597;48.730;9.114;2023-07-09T03:57:54;20.30;99.90
9125;DHT22;4597;48.730;9.114;2023-07-09T04:00:19;20.20;99.90
9125;DHT22;4597;48.730;9.114;2023-07-09T04:02:45;20.20;99.90
9125;DHT22;4597;48.730;9.114;2023-07-09T04:05:11;20.10;99.90
9125;DHT22;4597;48.730;9.114;2023-07-09T04:07:37;20.20;99.90
9125;DHT22;4597;48.730;9.114;2023-07-09T04:10:03;20.10;99.90
9125;DHT22;4597;48.730;9.114;2023-07-09T04:12:29;20.10;99.90
9125;DHT22;4597;48.730;9.114;2023-07-09T04:14:54;20.10;99.90
9125;DHT22;4597;48.730;9.114;2023-07-09T04:17:20;20.10;99.90
9125;DHT22;4597;48.730;9.114;2023-07-09T04:19:47;20.10;99.90
9125;DHT22;4597;48.730;9.114;2023-07-09T04:22:13;20.10;99.90
9125;DHT22;4597;48.730;9.114;2023-07-09T04:24:38;20.10;99.90
9125;DHT22;4597;48.730;9.114;2023-07-09T04:27:04;20.10;99.90
9125;DHT22;4597;48.730;9.114;2023-07-09T04:29:30;20.00;99.90
9125;DHT22;4597;48.730;9.114;2023-07-09T04:31:56;20.10;99.90
9125;DHT22;4597;48.730;9.114;2023-07-09T04:34:22;20.00;99.90
9125;DHT22;4597;48.730;9.114;2023-07-09T04:36:48;20.10;99.90
9125;DHT22;4597;48.730;9.114;2023-07-09T04:39:13;20.10;99.90
9125;DHT22;4597;48.730;9.114;2023-07-09T04:41:40;20.10;99.90
9125;DHT22;4597;48.730;9.114;2023-07-09T04:44:06;20.10;99.90
9125;DHT22;4597;48.730;9.114;2023-07-09T04:46:31;20.10;99.90
9125;DHT22;4597;48.730;9.114;2023-07-09T04:48:57;20.10;99.90
9125;DHT22;4597;48.730;9.114;2023-07-09T04:51:22;20.10;99.90
9125;DHT22;4597;48.730;9.114;2023-07-09T04:53:48;20.00;99.90
9125;DHT22;4597;48.730;9.114;2023-07-09T04:56:17;20.00;99.90
9125;DHT22;4597;48.730;9.114;2023-07-09T04:58:42;20.00;99.90
9125;DHT22;4597;48.730;9.114;2023-07-09T05:01:08;20.00;99.90
9125;DHT22;4597;48.730;9.114;2023-07-09T05:03:33;20.10;99.90
9125;DHT22;4597;48.730;9.114;2023-07-09T05:05:59;20.10;99.90
9125;DHT22;4597;48.730;9.114;2023-07-09T05:08:24;20.10;99.90
9125;DHT22;4597;48.730;9.114;2023-07-09T05:10:51;20.00;99.90
9125;DHT22;4597;48.730;9.114;2023-07-09T05:13:18;20.00;99.90
9125;DHT22;4597;48.730;9.114;2023-07-09T05:15:46;20.10;99.90
9125;DHT22;4597;48.730;9.114;2023-07-09T05:18:15;20.10;99.90
9125;DHT22;4597;48.730;9.114;2023-07-09T05:20:41;20.10;99.90
9125;DHT22;4597;48.730;9.114;2023-07-09T05:23:11;20.10;99.90
9125;DHT22;4597;48.730;9.114;2023-07-09T05:25:36;20.10;99.90
9125;DHT22;4597;48.730;9.114;2023-07-09T05:28:03;20.00;99.90
9125;DHT22;4597;48.730;9.114;2023-07-09T05:30:28;20.00;99.90
9125;DHT22;4597;48.730;9.114;2023-07-09T05:32:54;20.10;99.90
9125;DHT22;4597;48.730;9.114;2023-07-09T05:35:25;20.10;99.90
9125;DHT22;4597;48.730;9.114;2023-07-09T05:37:52;20.20;99.90
9125;DHT22;4597;48.730;9.114;2023-07-09T05:40:18;20.20;99.90
9125;DHT22;4597;48.730;9.114;2023-07-09T05:42:43;20.20;99.90
9125;DHT22;4597;48.730;9.114;2023-07-09T05:45:09;20.30;99.90
9125;DHT22;4597;48.730;9.114;2023-07-09T05:47:35;20.30;99.90
9125;DHT22;4597;48.730;9.114;2023-07-09T05:50:00;20.40;99.90
9125;DHT22;4597;48.730;9.114;2023-07-09T05:52:27;20.50;99.90
9125;DHT22;4597;48.730;9.114;2023-07-09T05:54:54;20.60;99.90
9125;DHT22;4597;48.730;9.114;2023-07-09T05:57:20;20.70;99.90
9125;DHT22;4597;48.730;9.114;2023-07-09T05:59:46;20.70;99.90
9125;DHT22;4597;48.730;9.114;2023-07-09T06:02:13;20.80;99.90
9125;DHT22;4597;48.730;9.114;2023-07-09T06:04:39;20.90;99.90
9125;DHT22;4597;48.730;9.114;2023-07-09T06:07:05;21.00;99.90
9125;DHT22;4597;48.730;9.114;2023-07-09T06:09:30;21.00;99.90
9125;DHT22;4597;48.730;9.114;2023-07-09T06:11:57;21.10;99.90
9125;DHT22;4597;48.730;9.114;2023-07-09T06:14:22;21.10;99.90
9125;DHT22;4597;48.730;9.114;2023-07-09T06:16:48;21.20;99.90
9125;DHT22;4597;48.730;9.114;2023-07-09T06:19:13;21.20;99.90
9125;DHT22;4597;48.730;9.114;2023-07-09T06:21:40;21.20;99.90
9125;DHT22;4597;48.730;9.114;2023-07-09T06:24:06;21.20;99.90
9125;DHT22;4597;48.730;9.114;2023-07-09T06:26:32;21.20;99.90
9125;DHT22;4597;48.730;9.114;2023-07-09T06:28:58;21.30;99.90
9125;DHT22;4597;48.730;9.114;2023-07-09T06:31:23;21.40;99.90
9125;DHT22;4597;48.730;9.114;2023-07-09T06:33:50;21.50;99.90
9125;DHT22;4597;48.730;9.114;2023-07-09T06:36:17;21.50;99.90
9125;DHT22;4597;48.730;9.114;2023-07-09T06:38:43;21.50;99.90
9125;DHT22;4597;48.730;9.114;2023-07-09T06:41:09;21.50;99.90
9125;DHT22;4597;48.730;9.114;2023-07-09T06:43:35;21.60;99.90
9125;DHT22;4597;48.730;9.114;2023-07-09T06:46:04;21.70;99.90
9125;DHT22;4597;48.730;9.114;2023-07-09T06:48:30;21.70;99.90
9125;DHT22;4597;48.730;9.114;2023-07-09T06:50:57;21.80;99.90
9125;DHT22;4597;48.730;9.114;2023-07-09T06:53:23;21.90;99.90
9125;DHT22;4597;48.730;9.114;2023-07-09T06:55:49;21.90;99.90
9125;DHT22;4597;48.730;9.114;2023-07-09T06:58:18;22.00;99.90
9125;DHT22;4597;48.730;9.114;2023-07-09T07:00:43;22.10;99.90
9125;DHT22;4597;48.730;9.114;2023-07-09T07:03:09;22.10;99.90
9125;DHT22;4597;48.730;9.114;2023-07-09T07:05:35;22.20;99.90
9125;DHT22;4597;48.730;9.114;2023-07-09T07:08:02;22.30;99.90
9125;DHT22;4597;48.730;9.114;2023-07-09T07:10:29;22.30;99.90
9125;DHT22;4597;48.730;9.114;2023-07-09T07:12:55;22.40;99.90
9125;DHT22;4597;48.730;9.114;2023-07-09T07:15:20;22.50;99.90
9125;DHT22;4597;48.730;9.114;2023-07-09T07:17:46;22.70;99.90
9125;DHT22;4597;48.730;9.114;2023-07-09T07:20:13;22.80;99.90
9125;DHT22;4597;48.730;9.114;2023-07-09T07:22:39;22.90;99.90
9125;DHT22;4597;48.730;9.114;2023-07-09T07:25:06;23.10;99.90
9125;DHT22;4597;48.730;9.114;2023-07-09T07:27:33;23.20;99.90
9125;DHT22;4597;48.730;9.114;2023-07-09T07:29:58;23.30;99.90
9125;DHT22;4597;48.730;9.114;2023-07-09T07:32:24;23.50;99.90
9125;DHT22;4597;48.730;9.114;2023-07-09T07:34:50;23.60;99.90
9125;DHT22;4597;48.730;9.114;2023-07-09T07:37:18;23.70;99.90
9125;DHT22;4597;48.730;9.114;2023-07-09T07:39:47;23.80;99.90
9125;DHT22;4597;48.730;9.114;2023-07-09T07:42:13;23.90;99.90
9125;DHT22;4597;48.730;9.114;2023-07-09T07:44:39;24.00;99.90
9125;DHT22;4597;48.730;9.114;2023-07-09T07:47:05;24.00;99.90
9125;DHT22;4597;48.730;9.114;2023-07-09T07:49:31;24.10;99.90
9125;DHT22;4597;48.730;9.114;2023-07-09T07:51:56;24.30;99.90
9125;DHT22;4597;48.730;9.114;2023-07-09T07:54:22;24.40;99.90
9125;DHT22;4597;48.730;9.114;2023-07-09T07:56:47;24.50;99.90
9125;DHT22;4597;48.730;9.114;2023-07-09T07:59:13;24.60;99.90
9125;DHT22;4597;48.730;9.114;2023-07-09T08:01:39;24.70;99.90
9125;DHT22;4597;48.730;9.114;2023-07-09T08:04:05;24.80;99.90
9125;DHT22;4597;48.730;9.114;2023-07-09T08:06:31;24.90;99.80
9125;DHT22;4597;48.730;9.114;2023-07-09T08:08:57;25.00;98.10
9125;DHT22;4597;48.730;9.114;2023-07-09T08:11:23;25.00;98.80
9125;DHT22;4597;48.730;9.114;2023-07-09T08:13:49;25.00;96.60
9125;DHT22;4597;48.730;9.114;2023-07-09T08:16:15;25.10;94.60
9125;DHT22;4597;48.730;9.114;2023-07-09T08:18:41;25.20;94.00
9125;DHT22;4597;48.730;9.114;2023-07-09T08:21:06;25.20;94.00
9125;DHT22;4597;48.730;9.114;2023-07-09T08:23:32;25.30;94.00
9125;DHT22;4597;48.730;9.114;2023-07-09T08:26:00;25.40;93.10
9125;DHT22;4597;48.730;9.114;2023-07-09T08:28:27;25.60;91.70
9125;DHT22;4597;48.730;9.114;2023-07-09T08:30:53;25.60;91.30
9125;DHT22;4597;48.730;9.114;2023-07-09T08:33:19;25.70;90.00
9125;DHT22;4597;48.730;9.114;2023-07-09T08:35:44;25.70;87.30
9125;DHT22;4597;48.730;9.114;2023-07-09T08:38:10;25.80;86.00
9125;DHT22;4597;48.730;9.114;2023-07-09T08:40:43;25.90;84.10
9125;DHT22;4597;48.730;9.114;2023-07-09T08:43:27;25.90;82.60
9125;DHT22;4597;48.730;9.114;2023-07-09T08:46:20;26.00;79.30
9125;DHT22;4597;48.730;9.114;2023-07-09T08:48:51;26.10;76.60
9125;DHT22;4597;48.730;9.114;2023-07-09T08:51:34;26.10;75.30
9125;DHT22;4597;48.730;9.114;2023-07-09T08:54:02;26.20;75.00
9125;DHT22;4597;48.730;9.114;2023-07-09T08:56:31;26.40;73.30
9125;DHT22;4597;48.730;9.114;2023-07-09T08:59:00;26.40;72.90
9125;DHT22;4597;48.730;9.114;2023-07-09T09:01:31;26.50;70.20
9125;DHT22;4597;48.730;9.114;2023-07-09T09:06:38;26.70;65.00
9125;DHT22;4597;48.730;9.114;2023-07-09T09:09:28;26.80;63.20
9125;DHT22;4597;48.730;9.114;2023-07-09T09:12:04;26.90;64.40
9125;DHT22;4597;48.730;9.114;2023-07-09T09:14:38;26.90;63.70
9125;DHT22;4597;48.730;9.114;2023-07-09T09:17:17;27.00;63.20
9125;DHT22;4597;48.730;9.114;2023-07-09T09:19:47;27.10;61.70
9125;DHT22;4597;48.730;9.114;2023-07-09T09:22:17;27.20;62.70
9125;DHT22;4597;48.730;9.114;2023-07-09T09:24:55;27.20;60.00
9125;DHT22;4597;48.730;9.114;2023-07-09T09:27:22;27.40;60.50
9125;DHT22;4597;48.730;9.114;2023-07-09T09:29:47;27.50;58.50
9125;DHT22;4597;48.730;9.114;2023-07-09T09:32:39;27.60;59.60
9125;DHT22;4597;48.730;9.114;2023-07-09T09:35:18;27.60;58.40
9125;DHT22;4597;48.730;9.114;2023-07-09T09:37:54;27.70;60.80
9125;DHT22;4597;48.730;9.114;2023-07-09T09:40:21;27.70;59.90
9125;DHT22;4597;48.730;9.114;2023-07-09T09:42:51;27.80;58.10
9125;DHT22;4597;48.730;9.114;2023-07-09T09:45:20;27.80;56.60
9125;DHT22;4597;48.730;9.114;2023-07-09T09:47:47;27.90;54.30
9125;DHT22;4597;48.730;9.114;2023-07-09T09:50:21;27.90;53.80
9125;DHT22;4597;48.730;9.114;2023-07-09T09:52:48;28.10;51.80
9125;DHT22;4597;48.730;9.114;2023-07-09T09:55:20;28.20;54.30
9125;DHT22;4597;48.730;9.114;2023-07-09T09:57:50;28.20;53.10
9125;DHT22;4597;48.730;9.114;2023-07-09T10:00:16;28.30;51.70
9125;DHT22;4597;48.730;9.114;2023-07-09T10:02:42;28.40;50.20
9125;DHT22;4597;48.730;9.114;2023-07-09T10:05:15;28.50;50.90
9125;DHT22;4597;48.730;9.114;2023-07-09T10:07:55;28.50;48.60
9125;DHT22;4597;48.730;9.114;2023-07-09T10:10:24;28.70;46.90
9125;DHT22;4597;48.730;9.114;2023-07-09T10:16:06;28.80;48.00
9125;DHT22;4597;48.730;9.114;2023-07-09T10:18:41;29.00;45.50
9125;DHT22;4597;48.730;9.114;2023-07-09T10:27:00;29.20;45.40
9125;DHT22;4597;48.730;9.114;2023-07-09T10:29:47;29.40;46.20
9125;DHT22;4597;48.730;9.114;2023-07-09T10:32:36;29.50;43.10
9125;DHT22;4597;48.730;9.114;2023-07-09T10:37:56;29.70;44.00
9125;DHT22;4597;48.730;9.114;2023-07-09T10:40:52;29.70;43.60
9125;DHT22;4597;48.730;9.114;2023-07-09T10:43:43;29.90;41.50
9125;DHT22;4597;48.730;9.114;2023-07-09T10:46:23;30.00;41.80
9125;DHT22;4597;48.730;9.114;2023-07-09T10:48:53;30.00;41.70
9125;DHT22;4597;48.730;9.114;2023-07-09T10:54:02;30.20;40.20
9125;DHT22;4597;48.730;9.114;2023-07-09T10:56:31;30.30;39.80
9125;DHT22;4597;48.730;9.114;2023-07-09T10:59:30;30.40;40.20
9125;DHT22;4597;48.730;9.114;2023-07-09T11:04:46;30.60;39.50
9125;DHT22;4597;48.730;9.114;2023-07-09T11:07:15;30.80;36.90
9125;DHT22;4597;48.730;9.114;2023-07-09T11:09:44;30.90;36.90
9125;DHT22;4597;48.730;9.114;2023-07-09T11:12:19;30.90;38.30
9125;DHT22;4597;48.730;9.114;2023-07-09T11:15:00;31.00;36.00
9125;DHT22;4597;48.730;9.114;2023-07-09T11:17:28;31.10;35.20
9125;DHT22;4597;48.730;9.114;2023-07-09T11:19:56;31.20;36.90
9125;DHT22;4597;48.730;9.114;2023-07-09T11:22:37;31.20;34.80
9125;DHT22;4597;48.730;9.114;2023-07-09T11:27:51;31.20;34.50
9125;DHT22;4597;48.730;9.114;2023-07-09T11:30:27;31.30;35.20
9125;DHT22;4597;48.730;9.114;2023-07-09T11:32:59;31.40;35.40
9125;DHT22;4597;48.730;9.114;2023-07-09T11:35:27;31.40;34.20
9125;DHT22;4597;48.730;9.114;2023-07-09T11:37:54;31.30;34.80
9125;DHT22;4597;48.730;9.114;2023-07-09T11:40:21;31.20;34.50
9125;DHT22;4597;48.730;9.114;2023-07-09T11:42:53;31.00;34.60
9125;DHT22;4597;48.730;9.114;2023-07-09T11:45:28;30.80;35.40
9125;DHT22;4597;48.730;9.114;2023-07-09T11:50:50;30.80;35.40
9125;DHT22;4597;48.730;9.114;2023-07-09T11:55:44;30.90;33.60
9125;DHT22;4597;48.730;9.114;2023-07-09T11:58:16;30.90;33.70
9125;DHT22;4597;48.730;9.114;2023-07-09T12:00:55;31.00;33.90
9125;DHT22;4597;48.730;9.114;2023-07-09T12:03:33;31.40;33.60
9125;DHT22;4597;48.730;9.114;2023-07-09T12:06:04;31.70;33.20
9125;DHT22;4597;48.730;9.114;2023-07-09T12:08:35;32.00;29.60
9125;DHT22;4597;48.730;9.114;2023-07-09T12:11:01;32.20;28.90
9125;DHT22;4597;48.730;9.114;2023-07-09T12:13:27;32.30;29.40
9125;DHT22;4597;48.730;9.114;2023-07-09T12:15:53;32.50;28.90
9125;DHT22;4597;48.730;9.114;2023-07-09T12:18:18;32.70;29.00
9125;DHT22;4597;48.730;9.114;2023-07-09T12:20:52;32.90;28.60
9125;DHT22;4597;48.730;9.114;2023-07-09T12:23:22;33.00;27.00
9125;DHT22;4597;48.730;9.114;2023-07-09T12:25:50;33.10;26.30
9125;DHT22;4597;48.730;9.114;2023-07-09T12:28:16;33.20;26.40
9125;DHT22;4597;48.730;9.114;2023-07-09T12:30:47;33.40;26.00
9125;DHT22;4597;48.730;9.114;2023-07-09T12:33:21;33.60;26.10
9125;DHT22;4597;48.730;9.114;2023-07-09T12:35:49;33.80;26.50
9125;DHT22;4597;48.730;9.114;2023-07-09T12:38:24;33.90;26.00
9125;DHT22;4597;48.730;9.114;2023-07-09T12:40:51;34.10;23.80
9125;DHT22;4597;48.730;9.114;2023-07-09T12:43:28;34.20;24.00
9125;DHT22;4597;48.730;9.114;2023-07-09T12:45:56;34.30;23.90
9125;DHT22;4597;48.730;9.114;2023-07-09T12:48:23;34.30;24.70
9125;DHT22;4597;48.730;9.114;2023-07-09T12:50:50;34.50;24.20
9125;DHT22;4597;48.730;9.114;2023-07-09T12:53:19;34.70;22.20
9125;DHT22;4597;48.730;9.114;2023-07-09T12:55:47;34.80;22.00
9125;DHT22;4597;48.730;9.114;2023-07-09T12:58:23;34.90;22.70
9125;DHT22;4597;48.730;9.114;2023-07-09T13:00:54;35.10;22.10
9125;DHT22;4597;48.730;9.114;2023-07-09T13:03:22;35.20;23.00
9125;DHT22;4597;48.730;9.114;2023-07-09T13:06:01;35.30;22.10
9125;DHT22;4597;48.730;9.114;2023-07-09T13:08:30;35.40;21.80
9125;DHT22;4597;48.730;9.114;2023-07-09T13:10:56;35.40;19.80
9125;DHT22;4597;48.730;9.114;2023-07-09T13:13:24;35.40;21.20
9125;DHT22;4597;48.730;9.114;2023-07-09T13:15:56;35.50;20.90
9125;DHT22;4597;48.730;9.114;2023-07-09T13:18:24;35.70;21.10
9125;DHT22;4597;48.730;9.114;2023-07-09T13:20:51;35.90;20.80
9125;DHT22;4597;48.730;9.114;2023-07-09T13:23:28;36.00;18.80
9125;DHT22;4597;48.730;9.114;2023-07-09T13:25:54;36.10;18.90
9125;DHT22;4597;48.730;9.114;2023-07-09T13:28:30;36.20;19.40
9125;DHT22;4597;48.730;9.114;2023-07-09T13:30:58;36.30;19.20
9125;DHT22;4597;48.730;9.114;2023-07-09T13:33:24;36.50;17.80
9125;DHT22;4597;48.730;9.114;2023-07-09T13:35:50;36.60;18.60
9125;DHT22;4597;48.730;9.114;2023-07-09T13:38:20;36.90;18.10
9125;DHT22;4597;48.730;9.114;2023-07-09T13:40:48;37.10;18.00
9125;DHT22;4597;48.730;9.114;2023-07-09T13:45:54;37.50;16.60
9125;DHT22;4597;48.730;9.114;2023-07-09T13:48:21;37.70;16.40
9125;DHT22;4597;48.730;9.114;2023-07-09T13:50:49;37.80;16.40
9125;DHT22;4597;48.730;9.114;2023-07-09T13:53:19;37.90;16.60
9125;DHT22;4597;48.730;9.114;2023-07-09T13:55:45;38.10;16.00
9125;DHT22;4597;48.730;9.114;2023-07-09T13:58:12;38.30;16.90
9125;DHT22;4597;48.730;9.114;2023-07-09T14:00:40;38.30;15.60
9125;DHT22;4597;48.730;9.114;2023-07-09T14:03:24;38.40;15.30
9125;DHT22;4597;48.730;9.114;2023-07-09T14:05:50;38.60;15.60
9125;DHT22;4597;48.730;9.114;2023-07-09T14:08:16;38.80;16.30
9125;DHT22;4597;48.730;9.114;2023-07-09T14:10:44;38.90;14.30
9125;DHT22;4597;48.730;9.114;2023-07-09T14:13:23;39.00;14.40
9125;DHT22;4597;48.730;9.114;2023-07-09T14:15:49;39.20;14.10
9125;DHT22;4597;48.730;9.114;2023-07-09T14:18:20;39.90;14.00
9125;DHT22;4597;48.730;9.114;2023-07-09T14:20:46;40.80;11.20
9125;DHT22;4597;48.730;9.114;2023-07-09T14:23:13;41.70;10.20
9125;DHT22;4597;48.730;9.114;2023-07-09T14:25:39;42.30;9.20
9125;DHT22;4597;48.730;9.114;2023-07-09T14:28:10;42.80;10.10
9125;DHT22;4597;48.730;9.114;2023-07-09T14:30:36;42.90;9.20
9125;DHT22;4597;48.730;9.114;2023-07-09T14:33:01;43.00;9.50
9125;DHT22;4597;48.730;9.114;2023-07-09T14:35:27;42.80;8.00
9125;DHT22;4597;48.730;9.114;2023-07-09T14:37:53;42.10;6.80
9125;DHT22;4597;48.730;9.114;2023-07-09T14:40:25;41.20;7.30
9125;DHT22;4597;48.730;9.114;2023-07-09T14:42:50;40.90;9.40
9125;DHT22;4597;48.730;9.114;2023-07-09T14:45:18;40.90;8.40
9125;DHT22;4597;48.730;9.114;2023-07-09T14:47:43;41.10;8.70
9125;DHT22;4597;48.730;9.114;2023-07-09T14:50:10;41.10;7.40
9125;DHT22;4597;48.730;9.114;2023-07-09T14:52:40;41.20;9.90
9125;DHT22;4597;48.730;9.114;2023-07-09T14:55:12;41.30;8.80
9125;DHT22;4597;48.730;9.114;2023-07-09T14:57:38;41.40;11.20
9125;DHT22;4597;48.730;9.114;2023-07-09T15:00:04;41.40;9.80
9125;DHT22;4597;48.730;9.114;2023-07-09T15:02:41;40.90;9.40
9125;DHT22;4597;48.730;9.114;2023-07-09T15:05:27;40.50;9.80
9125;DHT22;4597;48.730;9.114;2023-07-09T15:07:55;40.60;10.10
9125;DHT22;4597;48.730;9.114;2023-07-09T15:10:24;41.00;11.10
9125;DHT22;4597;48.730;9.114;2023-07-09T15:12:50;41.10;9.30
9125;DHT22;4597;48.730;9.114;2023-07-09T15:15:30;41.00;9.80
9125;DHT22;4597;48.730;9.114;2023-07-09T15:17:57;41.20;12.20
9125;DHT22;4597;48.730;9.114;2023-07-09T15:20:25;41.10;10.70
9125;DHT22;4597;48.730;9.114;2023-07-09T15:22:53;41.40;10.20
9125;DHT22;4597;48.730;9.114;2023-07-09T15:25:23;41.70;10.30
9125;DHT22;4597;48.730;9.114;2023-07-09T15:27:50;41.70;10.10
9125;DHT22;4597;48.730;9.114;2023-07-09T15:30:22;41.90;10.40
9125;DHT22;4597;48.730;9.114;2023-07-09T15:32:49;41.60;10.30
9125;DHT22;4597;48.730;9.114;2023-07-09T15:35:16;41.40;11.40
9125;DHT22;4597;48.730;9.114;2023-07-09T15:37:42;40.90;10.50
9125;DHT22;4597;48.730;9.114;2023-07-09T15:40:20;40.30;9.40
9125;DHT22;4597;48.730;9.114;2023-07-09T15:42:53;40.00;10.20
9125;DHT22;4597;48.730;9.114;2023-07-09T15:45:20;39.60;10.10
9125;DHT22;4597;48.730;9.114;2023-07-09T15:47:47;39.30;11.60
9125;DHT22;4597;48.730;9.114;2023-07-09T15:50:25;38.90;11.40
9125;DHT22;4597;48.730;9.114;2023-07-09T15:52:51;38.50;12.20
9125;DHT22;4597;48.730;9.114;2023-07-09T15:55:22;38.30;13.10
9125;DHT22;4597;48.730;9.114;2023-07-09T15:57:50;38.00;12.90
9125;DHT22;4597;48.730;9.114;2023-07-09T16:00:19;37.70;13.00
9125;DHT22;4597;48.730;9.114;2023-07-09T16:02:46;37.60;13.30
9125;DHT22;4597;48.730;9.114;2023-07-09T16:05:32;37.50;14.40
9125;DHT22;4597;48.730;9.114;2023-07-09T16:07:58;37.30;15.20
9125;DHT22;4597;48.730;9.114;2023-07-09T16:10:26;37.10;16.80
9125;DHT22;4597;48.730;9.114;2023-07-09T16:12:53;37.10;14.80
9125;DHT22;4597;48.730;9.114;2023-07-09T16:15:20;37.00;14.90
9125;DHT22;4597;48.730;9.114;2023-07-09T16:17:47;36.90;15.90
9125;DHT22;4597;48.730;9.114;2023-07-09T16:20:21;36.90;16.20
9125;DHT22;4597;48.730;9.114;2023-07-09T16:22:50;36.90;15.80
9125;DHT22;4597;48.730;9.114;2023-07-09T16:25:22;36.90;15.70
9125;DHT22;4597;48.730;9.114;2023-07-09T16:27:48;36.90;15.80
9125;DHT22;4597;48.730;9.114;2023-07-09T16:30:23;37.00;16.00
9125;DHT22;4597;48.730;9.114;2023-07-09T16:32:50;37.00;15.50
9125;DHT22;4597;48.730;9.114;2023-07-09T16:35:20;37.20;15.40
9125;DHT22;4597;48.730;9.114;2023-07-09T16:37:47;37.30;16.70
9125;DHT22;4597;48.730;9.114;2023-07-09T16:40:17;37.40;16.30
9125;DHT22;4597;48.730;9.114;2023-07-09T16:42:43;37.60;15.30
9125;DHT22;4597;48.730;9.114;2023-07-09T16:45:11;38.00;14.30